createdAt,value
2022-10-25T00:00:56.112Z,7.03
2022-10-25T00:03:43.505Z,7.90
2022-10-25T00:06:30.430Z,8.43
2022-10-25T00:09:17.344Z,8.93
2022-10-25T00:12:05.421Z,9.00
2022-10-25T00:14:54.088Z,10.70
2022-10-25T00:17:42.292Z,9.03
2022-10-25T00:20:29.307Z,9.17
2022-10-25T00:23:16.892Z,5.83
2022-10-25T00:26:06.659Z,8.37
2022-10-25T00:28:55.020Z,8.97
2022-10-25T00:31:42.017Z,12.43
2022-10-25T00:34:28.959Z,9.40
2022-10-25T00:37:16.150Z,5.60
2022-10-25T00:40:04.249Z,7.80
2022-10-25T00:42:51.177Z,8.50
2022-10-25T00:45:38.053Z,8.70
2022-10-25T00:48:25.036Z,5.17
2022-10-25T00:51:11.970Z,8.77
2022-10-25T00:53:59.151Z,12.33
2022-10-25T00:56:48.771Z,13.63
2022-10-25T00:59:35.840Z,13.67
2022-10-25T01:02:23.140Z,19.40
2022-10-25T01:05:10.630Z,10.57
2022-10-25T01:07:58.018Z,10.07
2022-10-25T01:10:45.163Z,8.13
2022-10-25T01:13:32.092Z,12.23
2022-10-25T01:16:30.444Z,31.37
2022-10-25T01:19:42.140Z,25.13
2022-10-25T01:23:02.455Z,31.77
2022-10-25T01:26:18.483Z,16.80
2022-10-25T01:29:14.168Z,20.77
2022-10-25T01:32:10.815Z,12.10
2022-10-25T01:35:38.960Z,13.37
2022-10-25T01:38:37.759Z,19.87
2022-10-25T01:41:35.393Z,13.60
2022-10-25T01:44:41.116Z,11.33
2022-10-25T01:47:52.496Z,9.17
2022-10-25T01:50:42.521Z,11.43
2022-10-25T01:53:29.429Z,12.60
2022-10-25T01:56:28.568Z,11.40
2022-10-25T01:59:33.014Z,10.47
2022-10-25T02:02:30.512Z,14.10
2022-10-25T02:05:27.516Z,12.00
2022-10-25T02:08:40.905Z,9.87
2022-10-25T02:11:30.892Z,11.77
2022-10-25T02:14:48.348Z,18.90
2022-10-25T02:17:43.771Z,13.17
2022-10-25T02:20:34.456Z,10.97
2022-10-25T02:23:22.709Z,14.90
2022-10-25T02:26:10.900Z,11.73
2022-10-25T02:28:57.931Z,10.27
2022-10-25T02:31:45.547Z,14.33
2022-10-25T02:34:33.235Z,13.07
2022-10-25T02:37:20.322Z,13.33
2022-10-25T02:40:08.872Z,10.37
2022-10-25T02:42:55.817Z,9.10
2022-10-25T02:45:42.766Z,12.20
2022-10-25T02:48:29.709Z,10.37
2022-10-25T02:51:17.458Z,12.67
2022-10-25T02:54:04.849Z,13.93
2022-10-25T02:56:52.535Z,12.63
2022-10-25T02:59:39.631Z,10.53
2022-10-25T03:02:26.573Z,12.30
2022-10-25T03:05:13.504Z,11.83
2022-10-25T03:08:00.460Z,19.23
2022-10-25T03:10:47.758Z,19.37
2022-10-25T03:13:35.042Z,10.50
2022-10-25T03:16:21.940Z,12.40
2022-10-25T03:19:09.205Z,14.13
2022-10-25T03:21:56.107Z,12.77
2022-10-25T03:24:43.096Z,13.83
2022-10-25T03:27:30.029Z,13.93
2022-10-25T03:30:17.074Z,11.83
2022-10-25T03:33:03.967Z,12.77
2022-10-25T03:35:54.658Z,14.97
2022-10-25T03:38:41.550Z,12.77
2022-10-25T03:41:28.539Z,15.03
2022-10-25T03:44:15.517Z,17.37
2022-10-25T03:47:02.493Z,13.43
2022-10-25T03:49:50.856Z,17.40
2022-10-25T03:52:37.769Z,17.93
2022-10-25T03:55:24.684Z,16.83
2022-10-25T03:58:11.664Z,17.87
2022-10-25T04:01:00.057Z,20.70
2022-10-25T04:03:47.083Z,17.23
2022-10-25T04:06:34.040Z,18.03
2022-10-25T04:09:21.001Z,18.60
2022-10-25T04:12:07.941Z,22.13
2022-10-25T04:14:54.873Z,17.40
2022-10-25T04:17:41.833Z,20.33
2022-10-25T04:20:28.822Z,18.47
2022-10-25T04:23:15.731Z,16.80
2022-10-25T04:26:02.655Z,13.10
2022-10-25T04:28:54.565Z,10.87
2022-10-25T04:31:41.920Z,15.83
2022-10-25T04:34:29.358Z,16.07
2022-10-25T04:37:16.423Z,13.00
2022-10-25T04:40:03.597Z,19.50
2022-10-25T04:42:50.494Z,13.87
2022-10-25T04:45:37.411Z,20.77
2022-10-25T04:48:24.356Z,15.53
2022-10-25T04:51:12.840Z,21.30
2022-10-25T04:53:59.775Z,15.07
2022-10-25T04:56:46.668Z,18.50
2022-10-25T04:59:33.576Z,20.53
2022-10-25T05:02:20.620Z,18.90
2022-10-25T05:05:07.861Z,16.33
2022-10-25T05:07:54.816Z,18.90
2022-10-25T05:10:41.738Z,16.40
2022-10-25T05:13:32.456Z,16.80
2022-10-25T05:16:23.419Z,16.03
2022-10-25T05:19:10.339Z,16.43
2022-10-25T05:21:57.253Z,17.30
2022-10-25T05:24:44.225Z,13.60
2022-10-25T05:27:31.169Z,18.60
2022-10-25T05:30:18.162Z,17.20
2022-10-25T05:33:05.109Z,17.43
2022-10-25T05:35:52.074Z,15.00
2022-10-25T05:38:39.071Z,15.60
2022-10-25T05:41:26.483Z,21.00
2022-10-25T05:44:14.882Z,15.60
2022-10-25T05:47:01.871Z,17.53
2022-10-25T05:49:48.789Z,16.20
2022-10-25T05:52:35.720Z,17.83
2022-10-25T05:55:22.616Z,17.07
2022-10-25T05:58:09.763Z,22.27
2022-10-25T06:01:00.255Z,22.03
2022-10-25T06:03:54.768Z,12.20
2022-10-25T06:06:43.636Z,16.30
2022-10-25T06:09:30.528Z,18.50
2022-10-25T06:12:17.457Z,19.23
2022-10-25T06:15:04.802Z,18.73
2022-10-25T06:17:51.719Z,17.43
2022-10-25T06:20:38.706Z,14.87
2022-10-25T06:23:25.641Z,15.43
2022-10-25T06:26:18.483Z,18.97
2022-10-25T06:29:05.756Z,17.73
2022-10-25T06:31:52.681Z,15.97
2022-10-25T06:34:39.568Z,18.93
2022-10-25T06:37:26.505Z,20.60
2022-10-25T06:40:13.476Z,19.77
2022-10-25T06:43:00.486Z,15.37
2022-10-25T06:45:47.371Z,14.87
2022-10-25T06:48:34.654Z,12.80
2022-10-25T06:51:22.820Z,13.63
2022-10-25T06:54:09.788Z,19.13
2022-10-25T06:56:57.940Z,17.60
2022-10-25T06:59:45.892Z,15.03
2022-10-25T07:02:32.986Z,16.53
2022-10-25T07:05:20.252Z,21.77
2022-10-25T07:08:07.325Z,17.20
2022-10-25T07:10:57.245Z,14.53
2022-10-25T07:13:45.455Z,14.77
2022-10-25T07:16:32.646Z,16.33
2022-10-25T07:19:19.606Z,16.87
2022-10-25T07:22:06.520Z,15.77
2022-10-25T07:24:53.424Z,19.03
2022-10-25T07:27:40.374Z,16.80
2022-10-25T07:30:27.334Z,16.40
2022-10-25T07:33:16.281Z,16.43
2022-10-25T07:36:10.727Z,20.47
2022-10-25T07:38:58.644Z,17.67
2022-10-25T07:41:46.087Z,17.03
2022-10-25T07:44:33.059Z,19.53
2022-10-25T07:47:20.002Z,18.77
2022-10-25T07:50:07.091Z,19.00
2022-10-25T07:52:55.152Z,18.83
2022-10-25T07:55:42.073Z,18.53
2022-10-25T07:58:29.089Z,16.80
2022-10-25T08:01:21.402Z,19.37
2022-10-25T08:04:08.408Z,17.40
2022-10-25T08:06:55.306Z,19.37
2022-10-25T08:09:42.213Z,17.90
2022-10-25T08:12:29.124Z,16.13
2022-10-25T08:15:17.267Z,17.27
2022-10-25T08:18:04.720Z,18.53
2022-10-25T08:21:07.011Z,19.20
2022-10-25T08:23:53.928Z,17.93
2022-10-25T08:26:40.862Z,17.17
2022-10-25T08:29:27.813Z,14.47
2022-10-25T08:32:14.921Z,15.33
2022-10-25T08:35:01.854Z,16.63
2022-10-25T08:37:49.301Z,17.53
2022-10-25T08:40:42.269Z,17.20
2022-10-25T08:43:51.388Z,19.33
2022-10-25T08:47:06.944Z,17.70
2022-10-25T08:50:01.865Z,16.40
2022-10-25T08:53:14.191Z,15.63
2022-10-25T08:56:17.831Z,14.03
2022-10-25T08:59:05.492Z,18.73
2022-10-25T09:01:57.625Z,15.60
2022-10-25T09:04:44.920Z,16.03
2022-10-25T09:08:03.308Z,15.60
2022-10-25T09:11:16.075Z,13.43
2022-10-25T09:14:12.008Z,10.17
2022-10-25T09:17:16.533Z,10.13
2022-10-25T09:20:16.739Z,14.43
2022-10-25T09:23:27.663Z,13.17
2022-10-25T09:26:38.215Z,12.07
2022-10-25T09:29:35.718Z,11.70
2022-10-25T09:32:49.212Z,9.17
2022-10-25T09:35:45.150Z,7.67
2022-10-25T09:38:49.381Z,12.93
2022-10-25T09:41:40.773Z,10.90
2022-10-25T09:44:36.072Z,12.13
2022-10-25T09:47:30.487Z,10.10
2022-10-25T09:50:39.717Z,10.50
2022-10-25T09:53:27.266Z,10.57
2022-10-25T09:56:14.701Z,10.68
2022-10-25T09:59:04.445Z,10.60
2022-10-25T10:01:51.674Z,7.73
2022-10-25T10:04:39.889Z,10.23
2022-10-25T10:07:29.501Z,10.00
2022-10-25T10:10:27.535Z,10.33
2022-10-25T10:13:23.709Z,7.93
2022-10-25T10:16:41.811Z,8.00
2022-10-25T10:19:30.002Z,7.03
2022-10-25T10:22:17.574Z,9.70
2022-10-25T10:25:05.767Z,9.57
2022-10-25T10:27:55.759Z,10.03
2022-10-25T10:30:42.780Z,10.37
2022-10-25T10:33:32.739Z,8.27
2022-10-25T10:36:21.195Z,9.27
2022-10-25T10:39:22.702Z,7.97
2022-10-25T10:42:18.486Z,8.20
2022-10-25T10:45:08.605Z,9.30
2022-10-25T10:47:57.922Z,7.53
2022-10-25T10:50:49.620Z,9.27
2022-10-25T10:53:36.917Z,8.47
2022-10-25T10:56:23.885Z,7.27
2022-10-25T10:59:33.033Z,11.13
2022-10-25T11:02:37.493Z,6.57
2022-10-25T11:05:27.654Z,7.27
2022-10-25T11:08:19.044Z,7.57
2022-10-25T11:11:19.537Z,7.47
2022-10-25T11:14:13.685Z,10.97
2022-10-25T11:17:16.920Z,5.07
2022-10-25T11:20:27.497Z,7.47
2022-10-25T11:23:25.353Z,7.10
2022-10-25T11:26:24.286Z,12.07
2022-10-25T11:29:40.938Z,8.43
2022-10-25T11:32:50.297Z,5.80
2022-10-25T11:35:44.212Z,8.53
2022-10-25T11:38:48.776Z,6.90
2022-10-25T11:42:19.564Z,6.93
2022-10-25T11:45:34.493Z,6.53
2022-10-25T11:48:39.903Z,7.50
2022-10-25T11:51:40.104Z,7.33
2022-10-25T11:54:31.395Z,5.73
2022-10-25T11:57:36.020Z,5.53
2022-10-25T12:00:30.957Z,9.87
2022-10-25T12:03:44.488Z,7.17
2022-10-25T12:06:38.021Z,5.10
2022-10-25T12:09:37.365Z,8.33
2022-10-25T12:12:40.938Z,5.90
2022-10-25T12:15:37.200Z,8.60
2022-10-25T12:18:52.433Z,8.23
2022-10-25T12:21:49.288Z,8.10
2022-10-25T12:24:47.953Z,6.93
2022-10-25T12:27:36.134Z,5.70
2022-10-25T12:30:23.097Z,6.60
2022-10-25T12:33:24.749Z,8.97
2022-10-25T12:36:24.526Z,7.93
2022-10-25T12:39:25.389Z,9.93
2022-10-25T12:42:26.207Z,5.72
2022-10-25T12:45:37.435Z,4.97
2022-10-25T12:48:45.626Z,5.67
2022-10-25T12:51:53.814Z,8.40
2022-10-25T12:55:07.355Z,5.10
2022-10-25T12:58:03.282Z,8.63
2022-10-25T13:01:08.847Z,5.30
2022-10-25T13:04:22.773Z,6.33
2022-10-25T13:07:11.357Z,7.80
2022-10-25T13:10:07.238Z,5.83
2022-10-25T13:13:01.643Z,5.73
2022-10-25T13:15:52.785Z,7.60
2022-10-25T13:18:44.119Z,8.60
2022-10-25T13:21:53.416Z,7.40
2022-10-25T13:24:41.921Z,5.27
2022-10-25T13:27:33.590Z,5.00
2022-10-25T13:30:26.515Z,6.17
2022-10-25T13:33:16.531Z,6.53
2022-10-25T13:36:05.313Z,5.50
2022-10-25T13:39:05.132Z,5.03
2022-10-25T13:41:54.677Z,7.37
2022-10-25T13:44:55.645Z,7.37
2022-10-25T13:47:49.074Z,7.20
2022-10-25T13:50:52.234Z,6.03
2022-10-25T13:53:48.275Z,6.40
2022-10-25T13:56:47.599Z,6.57
2022-10-25T13:59:36.366Z,3.83
2022-10-25T14:02:23.372Z,6.73
2022-10-25T14:05:11.718Z,5.43
2022-10-25T14:08:17.176Z,5.17
2022-10-25T14:11:20.231Z,7.70
2022-10-25T14:14:21.706Z,5.80
2022-10-25T14:17:27.764Z,8.73
2022-10-25T14:20:32.312Z,7.23
2022-10-25T14:23:23.409Z,7.40
2022-10-25T14:26:15.780Z,11.43
2022-10-25T14:29:18.642Z,7.90
2022-10-25T14:32:13.278Z,6.77
2022-10-25T14:35:00.218Z,5.93
2022-10-25T14:37:47.305Z,8.93
2022-10-25T14:40:34.308Z,5.53
2022-10-25T14:43:32.626Z,8.40
2022-10-25T14:46:21.965Z,6.93
2022-10-25T14:49:09.747Z,6.27
2022-10-25T14:52:02.700Z,5.87
2022-10-25T14:54:55.574Z,5.77
2022-10-25T14:57:45.397Z,7.73
2022-10-25T15:00:32.518Z,5.40
2022-10-25T15:03:19.576Z,4.43
2022-10-25T15:06:06.696Z,4.27
2022-10-25T15:09:22.962Z,7.20
2022-10-25T15:12:06.984Z,6.07
2022-10-25T15:14:55.604Z,9.20
2022-10-25T15:17:50.927Z,5.43
2022-10-25T15:20:37.825Z,5.67
2022-10-25T15:23:25.441Z,6.60
2022-10-25T15:26:27.781Z,3.67
2022-10-25T15:29:40.500Z,6.17
2022-10-25T15:32:27.588Z,5.67
2022-10-25T15:35:23.891Z,4.53
2022-10-25T15:38:11.452Z,7.90
2022-10-25T15:40:58.665Z,8.03
2022-10-25T15:43:45.644Z,7.93
2022-10-25T15:46:34.748Z,7.53
2022-10-25T15:49:22.212Z,2.93
2022-10-25T15:52:14.593Z,7.30
2022-10-25T15:55:01.539Z,6.33
2022-10-25T15:57:49.019Z,6.83
2022-10-25T16:00:36.436Z,10.10
2022-10-25T16:03:24.772Z,5.27
2022-10-25T16:06:13.703Z,6.17
2022-10-25T16:09:02.022Z,6.27
2022-10-25T16:11:54.118Z,5.07
2022-10-25T16:14:41.090Z,7.53
2022-10-25T16:17:28.267Z,7.00
2022-10-25T16:20:27.750Z,11.90
2022-10-25T16:23:14.684Z,7.70
2022-10-25T16:26:01.641Z,9.43
2022-10-25T16:28:48.557Z,5.53
2022-10-25T16:31:35.563Z,8.87
2022-10-25T16:34:22.533Z,7.77
2022-10-25T16:37:11.809Z,7.50
2022-10-25T16:39:59.080Z,6.63
2022-10-25T16:42:46.691Z,8.83
2022-10-25T16:45:39.529Z,6.50
2022-10-25T16:48:26.483Z,7.17
2022-10-25T16:51:14.798Z,6.93
2022-10-25T16:54:02.137Z,5.60
2022-10-25T16:56:49.080Z,8.13
2022-10-25T16:59:36.104Z,7.70
2022-10-25T17:02:26.626Z,9.43
2022-10-25T17:05:22.991Z,6.20
2022-10-25T17:08:09.955Z,7.97
2022-10-25T17:10:56.838Z,9.03
2022-10-25T17:13:43.991Z,4.80
2022-10-25T17:16:31.052Z,7.13
2022-10-25T17:19:18.007Z,5.80
2022-10-25T17:22:05.088Z,10.73
2022-10-25T17:24:51.992Z,7.87
2022-10-25T17:27:41.666Z,13.20
2022-10-25T17:30:28.752Z,11.87
2022-10-25T17:33:15.700Z,9.33
2022-10-25T17:36:11.426Z,8.27
2022-10-25T17:38:59.228Z,8.93
2022-10-25T17:41:46.154Z,6.03
2022-10-25T17:44:33.050Z,6.83
2022-10-25T17:47:19.998Z,6.90
2022-10-25T17:50:07.210Z,6.43
2022-10-25T17:52:54.202Z,10.07
2022-10-25T17:55:41.311Z,7.33
2022-10-25T17:58:28.226Z,14.00
2022-10-25T18:01:21.202Z,12.50
2022-10-25T18:04:08.227Z,9.33
2022-10-25T18:06:55.194Z,9.53
2022-10-25T18:09:42.123Z,6.10
2022-10-25T18:12:30.321Z,8.07
2022-10-25T18:15:17.414Z,7.70
2022-10-25T18:18:04.346Z,9.07
2022-10-25T18:20:51.666Z,8.40
2022-10-25T18:23:39.479Z,8.77
2022-10-25T18:26:27.262Z,11.77
2022-10-25T18:29:14.176Z,11.70
2022-10-25T18:32:01.371Z,14.60
2022-10-25T18:34:48.281Z,17.43
2022-10-25T18:37:35.174Z,15.00
2022-10-25T18:40:22.629Z,15.17
2022-10-25T18:43:09.562Z,17.50
2022-10-25T18:45:57.352Z,14.90
2022-10-25T18:48:45.266Z,14.93
2022-10-25T18:51:32.829Z,11.53
2022-10-25T18:54:19.792Z,7.57
2022-10-25T18:57:06.693Z,10.83
2022-10-25T18:59:53.608Z,12.57
2022-10-25T19:02:40.723Z,9.63
2022-10-25T19:05:29.492Z,8.47
2022-10-25T19:08:16.405Z,10.10
2022-10-25T19:11:05.684Z,13.70
2022-10-25T19:13:56.124Z,11.80
2022-10-25T19:16:43.680Z,11.10
2022-10-25T19:19:30.600Z,11.27
2022-10-25T19:22:17.561Z,9.67
2022-10-25T19:25:04.816Z,9.63
2022-10-25T19:27:51.747Z,13.10
2022-10-25T19:30:40.155Z,9.97
2022-10-25T19:33:27.084Z,11.53
2022-10-25T19:36:14.771Z,10.93
2022-10-25T19:39:03.633Z,10.33
2022-10-25T19:41:50.531Z,13.10
2022-10-25T19:44:37.694Z,10.57
2022-10-25T19:47:24.632Z,6.67
2022-10-25T19:50:11.598Z,9.23
2022-10-25T19:52:58.724Z,8.57
2022-10-25T19:55:57.913Z,10.47
2022-10-25T19:58:45.414Z,7.40
2022-10-25T20:01:32.931Z,8.33
2022-10-25T20:04:19.965Z,11.43
2022-10-25T20:07:06.889Z,9.27
2022-10-25T20:09:53.805Z,10.03
2022-10-25T20:12:42.119Z,9.63
2022-10-25T20:15:29.084Z,10.07
2022-10-25T20:18:15.992Z,15.23
2022-10-25T20:21:09.039Z,15.77
2022-10-25T20:23:57.952Z,12.50
2022-10-25T20:26:49.259Z,12.23
2022-10-25T20:29:36.190Z,12.03
2022-10-25T20:32:23.157Z,17.17
2022-10-25T20:35:10.039Z,16.37
2022-10-25T20:37:56.934Z,13.60
2022-10-25T20:40:45.146Z,19.37
2022-10-25T20:43:32.699Z,14.33
2022-10-25T20:46:21.373Z,15.67
2022-10-25T20:49:08.346Z,13.83
2022-10-25T20:51:55.332Z,12.30
2022-10-25T20:54:42.289Z,17.20
2022-10-25T20:57:29.301Z,21.07
2022-10-25T21:00:19.697Z,14.13
2022-10-25T21:03:07.582Z,16.07
2022-10-25T21:05:55.830Z,13.83
2022-10-25T21:08:42.826Z,12.23
2022-10-25T21:11:29.787Z,15.97
2022-10-25T21:14:16.831Z,16.53
2022-10-25T21:17:03.835Z,14.20
2022-10-25T21:19:50.883Z,16.90
2022-10-25T21:22:40.944Z,16.13
2022-10-25T21:25:27.875Z,13.47
2022-10-25T21:28:14.813Z,15.03
2022-10-25T21:31:06.524Z,16.27
2022-10-25T21:33:56.199Z,11.87
2022-10-25T21:36:45.590Z,12.73
2022-10-25T21:39:32.597Z,14.47
2022-10-25T21:42:19.555Z,16.13
2022-10-25T21:45:06.975Z,15.27
2022-10-25T21:47:53.929Z,13.07
2022-10-25T21:50:40.897Z,12.50
2022-10-25T21:53:28.293Z,11.90
2022-10-25T21:56:18.161Z,15.83
2022-10-25T21:59:05.234Z,16.40
2022-10-25T22:01:52.219Z,15.57
2022-10-25T22:04:41.708Z,13.70
2022-10-25T22:07:28.691Z,15.30
2022-10-25T22:10:15.647Z,11.80
2022-10-25T22:13:02.627Z,13.53
2022-10-25T22:16:00.561Z,12.87
2022-10-25T22:18:54.248Z,14.30
2022-10-25T22:21:41.599Z,14.27
2022-10-25T22:24:28.545Z,11.23
2022-10-25T22:27:15.452Z,14.67
2022-10-25T22:30:02.373Z,9.87
2022-10-25T22:32:49.499Z,13.97
2022-10-25T22:35:36.651Z,13.70
2022-10-25T22:38:23.650Z,11.77
2022-10-25T22:41:22.503Z,13.07
2022-10-25T22:44:09.545Z,10.17
2022-10-25T22:46:56.483Z,14.10
2022-10-25T22:49:43.395Z,13.97
2022-10-25T22:52:30.290Z,11.47
2022-10-25T22:55:17.207Z,8.63
2022-10-25T22:58:04.135Z,10.40
2022-10-25T23:00:51.447Z,12.43
2022-10-25T23:03:41.245Z,12.87
2022-10-25T23:06:30.283Z,11.30
2022-10-25T23:09:17.275Z,11.57
2022-10-25T23:12:04.597Z,12.53
2022-10-25T23:14:51.507Z,10.70
2022-10-25T23:17:38.486Z,9.93
2022-10-25T23:20:25.448Z,11.47
2022-10-25T23:23:12.394Z,12.83
2022-10-25T23:26:00.729Z,14.17
2022-10-25T23:28:48.128Z,14.83
2022-10-25T23:31:35.031Z,12.97
2022-10-25T23:37:13.959Z,12.43
2022-10-25T23:40:00.961Z,11.20
2022-10-25T23:42:47.983Z,9.60
2022-10-25T23:45:34.888Z,9.93
2022-10-25T23:48:21.857Z,11.17
2022-10-25T23:51:11.370Z,14.07
2022-10-25T23:53:58.267Z,11.03
2022-10-25T23:56:45.266Z,10.87
2022-10-25T23:59:32.248Z,11.33
